createdAt,value
2024-03-11T00:00:20.057Z,51.95
2024-03-11T00:01:20.204Z,52.90
2024-03-11T00:02:20.304Z,51.85
2024-03-11T00:03:20.403Z,51.20
2024-03-11T00:04:20.514Z,51.82
2024-03-11T00:05:20.669Z,51.42
2024-03-11T00:06:20.733Z,53.48
2024-03-11T00:07:20.884Z,51.41
2024-03-11T00:08:20.987Z,52.83
2024-03-11T00:09:21.104Z,51.43
2024-03-11T00:10:21.261Z,51.98
2024-03-11T00:11:21.390Z,50.73
2024-03-11T00:12:21.468Z,52.05
2024-03-11T00:13:21.562Z,53.11
2024-03-11T00:14:21.675Z,52.02
2024-03-11T00:15:22.347Z,52.37
2024-03-11T00:16:21.933Z,53.68
2024-03-11T00:17:22.070Z,52.25
2024-03-11T00:18:22.169Z,53.97
2024-03-11T00:19:22.230Z,54.24
2024-03-11T00:20:22.541Z,54.05
2024-03-11T00:21:22.461Z,53.12
2024-03-11T00:22:22.572Z,53.34
2024-03-11T00:23:22.748Z,53.29
2024-03-11T00:24:22.808Z,51.76
2024-03-11T00:25:22.893Z,52.93
2024-03-11T00:26:23.079Z,51.88
2024-03-11T00:27:23.115Z,53.74
2024-03-11T00:28:23.244Z,52.28
2024-03-11T00:29:23.373Z,52.59
2024-03-11T00:30:23.466Z,50.32
2024-03-11T00:31:23.554Z,52.14
2024-03-11T00:32:23.741Z,51.32
2024-03-11T00:33:23.848Z,52.52
2024-03-11T00:34:23.922Z,51.03
2024-03-11T00:35:24.027Z,53.00
2024-03-11T00:36:24.120Z,52.38
2024-03-11T00:37:24.203Z,53.36
2024-03-11T00:38:24.422Z,51.83
2024-03-11T00:39:24.413Z,51.22
2024-03-11T00:40:24.543Z,51.03
2024-03-11T00:41:24.640Z,53.71
2024-03-11T00:42:24.745Z,51.81
2024-03-11T00:43:24.848Z,53.87
2024-03-11T00:44:24.987Z,53.31
2024-03-11T00:45:25.068Z,52.03
2024-03-11T00:46:32.690Z,50.00
2024-03-11T00:47:32.796Z,50.00
2024-03-11T00:48:32.845Z,50.00
2024-03-11T00:49:32.824Z,50.00
2024-03-11T00:50:32.906Z,50.00
2024-03-11T00:51:32.926Z,51.06
2024-03-11T00:52:32.983Z,52.55
2024-03-11T00:53:33.029Z,51.83
2024-03-11T00:54:33.081Z,50.55
2024-03-11T00:55:33.127Z,52.49
2024-03-11T00:56:33.624Z,53.37
2024-03-11T00:57:33.206Z,51.84
2024-03-11T00:58:33.273Z,53.00
2024-03-11T00:59:33.378Z,51.80
2024-03-11T01:00:33.449Z,51.51
2024-03-11T01:01:33.541Z,53.17
2024-03-11T01:02:33.706Z,52.68
2024-03-11T01:03:33.722Z,51.49
2024-03-11T01:04:33.833Z,51.46
2024-03-11T01:05:34.009Z,50.49
2024-03-11T01:06:34.062Z,54.07
2024-03-11T01:07:43.970Z,52.15
2024-03-11T01:08:35.161Z,52.29
2024-03-11T01:09:34.215Z,52.44
2024-03-11T01:10:34.192Z,52.90
2024-03-11T01:11:34.185Z,53.11
2024-03-11T01:12:34.179Z,52.53
2024-03-11T01:13:34.171Z,53.82
2024-03-11T01:14:34.206Z,53.95
2024-03-11T01:15:34.166Z,53.88
2024-03-11T01:16:34.184Z,53.71
2024-03-11T01:17:34.260Z,52.36
2024-03-11T01:18:34.391Z,52.05
2024-03-11T01:19:34.525Z,52.96
2024-03-11T01:20:34.667Z,49.91
2024-03-11T01:21:34.648Z,51.48
2024-03-11T01:22:34.753Z,53.72
2024-03-11T01:23:34.926Z,53.19
2024-03-11T01:24:34.951Z,53.31
2024-03-11T01:25:35.060Z,53.14
2024-03-11T01:26:35.214Z,52.91
2024-03-11T01:27:35.278Z,51.63
2024-03-11T01:28:35.418Z,53.79
2024-03-11T01:29:37.879Z,54.53
2024-03-11T01:30:35.527Z,53.13
2024-03-11T01:31:35.536Z,53.13
2024-03-11T01:32:35.591Z,53.64
2024-03-11T01:33:35.580Z,50.98
2024-03-11T01:34:35.550Z,53.14
2024-03-11T01:35:35.543Z,52.94
2024-03-11T01:36:35.567Z,50.85
2024-03-11T01:37:35.543Z,53.17
2024-03-11T01:38:35.561Z,52.05
2024-03-11T01:39:35.537Z,53.79
2024-03-11T01:40:35.553Z,52.95
2024-03-11T01:41:35.614Z,51.71
2024-03-11T01:42:35.549Z,53.66
2024-03-11T01:43:35.558Z,53.86
2024-03-11T01:44:35.580Z,53.47
2024-03-11T01:45:35.538Z,54.15
2024-03-11T01:46:35.569Z,53.12
2024-03-11T01:47:35.708Z,52.03
2024-03-11T01:48:35.638Z,52.65
2024-03-11T01:49:35.596Z,52.75
2024-03-11T01:50:35.672Z,50.46
2024-03-11T01:51:35.651Z,54.44
2024-03-11T01:52:35.584Z,51.50
2024-03-11T01:53:35.643Z,54.36
2024-03-11T01:54:35.588Z,52.56
2024-03-11T01:55:35.588Z,51.46
2024-03-11T01:56:35.635Z,50.91
2024-03-11T01:57:35.597Z,54.30
2024-03-11T01:58:35.588Z,54.43
2024-03-11T01:59:35.702Z,53.47
2024-03-11T02:00:35.596Z,53.79
2024-03-11T02:01:35.663Z,53.02
2024-03-11T02:02:35.731Z,51.56
2024-03-11T02:03:35.789Z,53.04
2024-03-11T02:04:35.901Z,54.00
2024-03-11T02:05:36.031Z,53.47
2024-03-11T02:06:36.152Z,54.67
2024-03-11T02:07:36.253Z,52.39
2024-03-11T02:08:36.399Z,54.41
2024-03-11T02:09:36.478Z,53.80
2024-03-11T02:10:36.608Z,53.54
2024-03-11T02:11:36.832Z,53.63
2024-03-11T02:12:36.840Z,52.37
2024-03-11T02:13:36.959Z,53.05
2024-03-11T02:14:37.180Z,52.07
2024-03-11T02:15:37.195Z,52.80
2024-03-11T02:16:37.318Z,52.66
2024-03-11T02:17:37.623Z,53.07
2024-03-11T02:18:37.607Z,53.90
2024-03-11T02:19:37.652Z,54.04
2024-03-11T02:20:37.832Z,52.79
2024-03-11T02:21:37.892Z,53.59
2024-03-11T02:22:38.018Z,51.47
2024-03-11T02:23:38.183Z,54.52
2024-03-11T02:24:38.239Z,54.11
2024-03-11T02:25:38.364Z,54.51
2024-03-11T02:26:38.582Z,53.90
2024-03-11T02:27:38.593Z,55.73
2024-03-11T02:28:38.727Z,53.84
2024-03-11T02:29:38.875Z,53.93
2024-03-11T02:30:38.957Z,54.38
2024-03-11T02:31:39.092Z,53.90
2024-03-11T02:32:39.277Z,52.91
2024-03-11T02:33:39.391Z,52.60
2024-03-11T02:34:39.457Z,54.78
2024-03-11T02:35:39.623Z,54.41
2024-03-11T02:36:39.710Z,52.14
2024-03-11T02:37:39.810Z,53.31
2024-03-11T02:38:39.975Z,52.76
2024-03-11T02:39:40.077Z,53.03
2024-03-11T02:40:40.250Z,53.38
2024-03-11T02:41:40.392Z,53.92
2024-03-11T02:42:40.438Z,53.63
2024-03-11T02:43:40.550Z,53.01
2024-03-11T02:44:40.696Z,53.37
2024-03-11T02:45:40.786Z,53.44
2024-03-11T02:46:40.916Z,52.89
2024-03-11T02:47:41.284Z,53.29
2024-03-11T02:48:41.199Z,53.54
2024-03-11T02:49:41.305Z,52.59
2024-03-11T02:50:41.489Z,51.92
2024-03-11T02:51:41.521Z,52.68
2024-03-11T02:52:41.631Z,52.93
2024-03-11T02:53:41.788Z,54.48
2024-03-11T02:54:41.882Z,51.65
2024-03-11T02:55:42.015Z,52.29
2024-03-11T02:56:42.225Z,54.20
2024-03-11T02:57:42.240Z,52.77
2024-03-11T02:58:42.367Z,51.05
2024-03-11T02:59:42.554Z,53.62
2024-03-11T03:00:42.616Z,52.16
2024-03-11T03:01:42.745Z,52.56
2024-03-11T03:02:42.917Z,51.77
2024-03-11T03:03:43.009Z,51.77
2024-03-11T03:04:43.110Z,53.09
2024-03-11T03:05:43.244Z,52.25
2024-03-11T03:06:43.357Z,53.24
2024-03-11T03:07:43.476Z,52.22
2024-03-11T03:08:43.635Z,53.07
2024-03-11T03:09:43.716Z,51.34
2024-03-11T03:10:43.904Z,53.00
2024-03-11T03:11:48.001Z,52.65
2024-03-11T03:12:44.036Z,52.72
2024-03-11T03:13:43.983Z,52.81
2024-03-11T03:14:44.066Z,52.69
2024-03-11T03:15:43.968Z,52.79
2024-03-11T03:16:43.997Z,52.50
2024-03-11T03:17:44.169Z,52.36
2024-03-11T03:18:44.036Z,53.33
2024-03-11T03:19:43.999Z,50.44
2024-03-11T03:20:44.021Z,53.53
2024-03-11T03:21:44.005Z,52.44
2024-03-11T03:22:43.982Z,51.92
2024-03-11T03:23:44.078Z,51.67
2024-03-11T03:24:43.994Z,52.23
2024-03-11T03:25:43.999Z,52.35
2024-03-11T03:26:44.034Z,52.92
2024-03-11T03:27:44.006Z,52.94
2024-03-11T03:28:43.996Z,52.29
2024-03-11T03:29:44.660Z,51.00
2024-03-11T03:30:44.014Z,51.37
2024-03-11T03:31:44.023Z,52.28
2024-03-11T03:32:44.134Z,55.08
2024-03-11T03:33:44.099Z,53.47
2024-03-11T03:34:43.996Z,51.57
2024-03-11T03:35:44.131Z,53.30
2024-03-11T03:36:44.219Z,51.83
2024-03-11T03:37:44.360Z,51.30
2024-03-11T03:38:44.557Z,53.55
2024-03-11T03:39:44.602Z,52.93
2024-03-11T03:40:44.724Z,53.22
2024-03-11T03:41:44.883Z,52.20
2024-03-11T03:42:44.978Z,53.04
2024-03-11T03:43:45.099Z,53.27
2024-03-11T03:44:45.440Z,50.74
2024-03-11T03:45:45.366Z,52.50
2024-03-11T03:46:45.484Z,52.48
2024-03-11T03:47:45.752Z,51.20
2024-03-11T03:48:45.712Z,52.75
2024-03-11T03:49:45.892Z,53.09
2024-03-11T03:50:45.988Z,52.07
2024-03-11T03:51:46.096Z,51.73
2024-03-11T03:52:46.213Z,52.48
2024-03-11T03:53:46.399Z,51.02
2024-03-11T03:54:46.459Z,52.10
2024-03-11T03:55:46.581Z,51.12
2024-03-11T03:56:46.848Z,51.33
2024-03-11T03:57:46.823Z,52.17
2024-03-11T03:58:46.946Z,52.01
2024-03-11T03:59:47.213Z,51.24
2024-03-11T04:00:47.234Z,51.30
2024-03-11T04:01:47.335Z,51.59
2024-03-11T04:02:47.528Z,51.88
2024-03-11T04:03:47.608Z,52.59
2024-03-11T04:04:47.690Z,51.99
2024-03-11T04:05:47.951Z,50.83
2024-03-11T04:06:47.931Z,53.56
2024-03-11T04:07:48.063Z,52.35
2024-03-11T04:08:48.234Z,50.66
2024-03-11T04:09:48.305Z,52.36
2024-03-11T04:10:48.491Z,52.62
2024-03-11T04:11:48.679Z,52.08
2024-03-11T04:12:48.739Z,51.29
2024-03-11T04:13:48.814Z,52.37
2024-03-11T04:14:48.979Z,54.15
2024-03-11T04:15:49.070Z,52.16
2024-03-11T04:16:49.183Z,52.17
2024-03-11T04:17:49.433Z,51.89
2024-03-11T04:18:49.430Z,51.92
2024-03-11T04:19:49.572Z,51.42
2024-03-11T04:20:49.762Z,51.90
2024-03-11T04:21:49.815Z,51.55
2024-03-11T04:22:49.941Z,52.71
2024-03-11T04:23:50.111Z,51.38
2024-03-11T04:24:50.185Z,53.12
2024-03-11T04:25:50.295Z,51.83
2024-03-11T04:26:50.441Z,52.90
2024-03-11T04:27:50.540Z,51.47
2024-03-11T04:28:50.655Z,51.65
2024-03-11T04:29:50.847Z,52.63
2024-03-11T04:30:50.909Z,53.47
2024-03-11T04:31:51.052Z,52.12
2024-03-11T04:32:51.279Z,50.69
2024-03-11T04:33:51.302Z,52.11
2024-03-11T04:34:51.433Z,51.64
2024-03-11T04:35:51.604Z,51.35
2024-03-11T04:36:58.961Z,50.00
2024-03-11T04:37:58.935Z,50.00
2024-03-11T04:38:58.955Z,50.00
2024-03-11T04:39:59.035Z,50.00
2024-03-11T04:40:58.944Z,50.00
2024-03-11T04:41:59.067Z,50.03
2024-03-11T04:42:58.942Z,51.81
2024-03-11T04:43:58.943Z,50.52
2024-03-11T04:44:58.957Z,51.92
2024-03-11T04:45:58.958Z,52.43
2024-03-11T04:46:58.980Z,51.17
2024-03-11T04:47:59.141Z,51.43
2024-03-11T04:48:58.947Z,53.06
2024-03-11T04:49:58.958Z,50.42
2024-03-11T04:50:59.067Z,51.11
2024-03-11T04:51:58.953Z,53.25
2024-03-11T04:52:58.959Z,52.36
2024-03-11T04:53:58.989Z,53.06
2024-03-11T04:54:58.965Z,51.92
2024-03-11T04:55:58.996Z,50.59
2024-03-11T04:56:59.058Z,51.70
2024-03-11T04:57:59.017Z,50.81
2024-03-11T04:58:59.006Z,50.74
2024-03-11T04:59:59.004Z,52.21
2024-03-11T05:00:59.085Z,51.37
2024-03-11T05:01:59.015Z,51.87
2024-03-11T05:02:59.021Z,52.15
2024-03-11T05:03:59.052Z,50.92
2024-03-11T05:04:59.017Z,51.67
2024-03-11T05:05:59.057Z,51.77
2024-03-11T05:06:59.040Z,51.70
2024-03-11T05:07:59.025Z,52.76
2024-03-11T05:08:59.141Z,51.14
2024-03-11T05:09:59.252Z,52.08
2024-03-11T05:10:59.481Z,51.61
2024-03-11T05:11:59.708Z,51.38
2024-03-11T05:12:59.645Z,52.28
2024-03-11T05:13:59.713Z,52.29
2024-03-11T05:14:59.822Z,52.45
2024-03-11T05:15:59.943Z,52.33
2024-03-11T05:17:00.067Z,51.49
2024-03-11T05:18:00.678Z,52.17
2024-03-11T05:19:00.317Z,51.63
2024-03-11T05:20:00.429Z,51.26
2024-03-11T05:21:00.657Z,51.69
2024-03-11T05:22:00.661Z,52.03
2024-03-11T05:23:00.815Z,52.73
2024-03-11T05:24:00.909Z,52.05
2024-03-11T05:25:01.026Z,51.90
2024-03-11T05:26:01.154Z,51.33
2024-03-11T05:27:01.273Z,52.24
2024-03-11T05:28:01.399Z,51.33
2024-03-11T05:29:01.536Z,52.27
2024-03-11T05:30:01.669Z,50.29
2024-03-11T05:31:01.767Z,53.17
2024-03-11T05:32:01.879Z,51.84
2024-03-11T05:33:02.133Z,50.85
2024-03-11T05:34:02.138Z,51.91
2024-03-11T05:35:02.285Z,51.77
2024-03-11T05:36:02.425Z,51.30
2024-03-11T05:37:02.491Z,52.63
2024-03-11T05:38:02.642Z,51.36
2024-03-11T05:39:02.737Z,51.47
2024-03-11T05:40:02.890Z,51.62
2024-03-11T05:41:02.982Z,51.43
2024-03-11T05:42:03.110Z,52.63
2024-03-11T05:43:03.219Z,51.47
2024-03-11T05:44:03.345Z,51.57
2024-03-11T05:45:03.828Z,51.43
2024-03-11T05:46:03.627Z,51.66
2024-03-11T05:47:03.814Z,50.87
2024-03-11T05:48:03.987Z,51.10
2024-03-11T05:49:03.987Z,50.48
2024-03-11T05:50:04.199Z,51.49
2024-03-11T05:51:04.396Z,52.49
2024-03-11T05:52:04.360Z,52.63
2024-03-11T05:53:04.504Z,52.08
2024-03-11T05:54:04.584Z,50.64
2024-03-11T05:55:06.893Z,53.28
2024-03-11T05:56:05.035Z,52.10
2024-03-11T05:57:04.969Z,52.68
2024-03-11T05:58:05.108Z,50.46
2024-03-11T05:59:05.111Z,52.07
2024-03-11T06:00:05.111Z,51.26
2024-03-11T06:01:05.211Z,51.63
2024-03-11T06:02:05.242Z,50.54
2024-03-11T06:03:05.289Z,52.45
2024-03-11T06:04:05.334Z,52.32
2024-03-11T06:05:05.434Z,51.69
2024-03-11T06:06:05.456Z,53.42
2024-03-11T06:07:05.588Z,53.61
2024-03-11T06:08:05.684Z,52.99
2024-03-11T06:09:05.795Z,53.51
2024-03-11T06:10:05.917Z,53.37
2024-03-11T06:11:06.104Z,54.05
2024-03-11T06:12:06.241Z,52.97
2024-03-11T06:13:06.279Z,53.63
2024-03-11T06:14:06.436Z,53.31
2024-03-11T06:15:06.552Z,54.90
2024-03-11T06:16:06.645Z,54.09
2024-03-11T06:17:06.747Z,53.91
2024-03-11T06:18:07.056Z,52.83
2024-03-11T06:19:06.995Z,53.84
2024-03-11T06:20:07.115Z,53.02
2024-03-11T06:21:07.212Z,53.86
2024-03-11T06:22:07.328Z,52.30
2024-03-11T06:23:07.465Z,52.35
2024-03-11T06:24:07.546Z,50.49
2024-03-11T06:25:07.738Z,52.62
2024-03-11T06:26:07.832Z,52.02
2024-03-11T06:27:07.907Z,51.15
2024-03-11T06:28:08.026Z,53.03
2024-03-11T06:29:08.163Z,50.61
2024-03-11T06:30:08.273Z,52.66
2024-03-11T06:31:08.368Z,52.52
2024-03-11T06:32:08.549Z,52.54
2024-03-11T06:33:08.702Z,53.54
2024-03-11T06:34:08.705Z,52.14
2024-03-11T06:35:08.865Z,53.25
2024-03-11T06:36:08.927Z,53.56
2024-03-11T06:37:09.063Z,52.91
2024-03-11T06:38:09.249Z,52.57
2024-03-11T06:39:09.301Z,53.60
2024-03-11T06:40:09.489Z,53.10
2024-03-11T06:41:09.616Z,53.25
2024-03-11T06:42:09.736Z,53.68
2024-03-11T06:43:09.810Z,53.23
2024-03-11T06:44:15.413Z,52.12
2024-03-11T06:45:10.927Z,52.23
2024-03-11T06:46:09.887Z,52.43
2024-03-11T06:47:10.171Z,52.88
2024-03-11T06:48:09.957Z,53.11
2024-03-11T06:49:09.945Z,53.02
2024-03-11T06:50:09.936Z,54.20
2024-03-11T06:51:09.914Z,53.42
2024-03-11T06:52:09.944Z,50.00
2024-03-11T06:53:09.973Z,52.81
2024-03-11T06:54:10.000Z,53.43
2024-03-11T06:55:10.113Z,51.53
2024-03-11T06:56:10.261Z,54.01
2024-03-11T06:57:10.455Z,52.59
2024-03-11T06:58:10.472Z,52.77
2024-03-11T06:59:10.588Z,53.66
2024-03-11T07:00:10.720Z,52.29
2024-03-11T07:01:10.864Z,52.76
2024-03-11T07:02:10.938Z,51.58
2024-03-11T07:03:11.053Z,53.53
2024-03-11T07:04:11.167Z,51.02
2024-03-11T07:05:11.271Z,51.17
2024-03-11T07:06:11.486Z,53.73
2024-03-11T07:07:11.513Z,52.28
2024-03-11T07:08:11.641Z,54.40
2024-03-11T07:09:11.731Z,53.50
2024-03-11T07:10:11.829Z,55.64
2024-03-11T07:11:11.966Z,59.06
2024-03-11T07:12:12.047Z,63.83
2024-03-11T07:13:12.094Z,64.67
2024-03-11T07:14:12.191Z,71.03
2024-03-11T07:15:12.256Z,70.63
2024-03-11T07:16:12.324Z,70.57
2024-03-11T07:17:12.457Z,75.38
2024-03-11T07:18:12.518Z,77.39
2024-03-11T07:19:12.685Z,78.44
2024-03-11T07:20:12.626Z,78.24
2024-03-11T07:21:12.664Z,80.30
2024-03-11T07:22:12.763Z,81.20
2024-03-11T07:23:12.824Z,85.12
2024-03-11T07:24:12.827Z,86.79
2024-03-11T07:25:12.944Z,86.88
2024-03-11T07:26:12.961Z,91.60
2024-03-11T07:27:12.957Z,91.64
2024-03-11T07:28:12.989Z,94.89
2024-03-11T07:29:13.085Z,96.05
2024-03-11T07:30:13.108Z,99.42
2024-03-11T07:31:13.223Z,101.29
2024-03-11T07:32:13.348Z,103.65
2024-03-11T07:33:13.327Z,104.02
2024-03-11T07:34:13.383Z,108.55
2024-03-11T07:35:13.420Z,109.04
2024-03-11T07:36:13.499Z,109.62
2024-03-11T07:37:13.576Z,112.90
2024-03-11T07:38:13.703Z,114.16
2024-03-11T07:39:13.786Z,114.29
2024-03-11T07:40:13.919Z,117.54
2024-03-11T07:41:13.975Z,115.93
2024-03-11T07:42:14.108Z,118.17
2024-03-11T07:43:14.227Z,120.29
2024-03-11T07:44:14.442Z,122.04
2024-03-11T07:45:14.485Z,123.92
2024-03-11T07:46:14.571Z,126.80
2024-03-11T07:47:14.710Z,126.60
2024-03-11T07:48:14.858Z,130.82
2024-03-11T07:49:14.942Z,131.86
2024-03-11T07:50:15.308Z,134.41
2024-03-11T07:51:15.437Z,136.17
2024-03-11T07:52:15.260Z,137.75
2024-03-11T07:53:15.298Z,137.39
2024-03-11T07:54:15.366Z,138.55
2024-03-11T07:55:15.454Z,136.76
2024-03-11T07:56:15.544Z,137.36
2024-03-11T07:57:15.666Z,138.21
2024-03-11T07:58:15.635Z,137.09
2024-03-11T07:59:15.725Z,136.79
2024-03-11T08:00:15.810Z,138.55
2024-03-11T08:01:16.054Z,139.32
2024-03-11T08:02:15.967Z,140.37
2024-03-11T08:03:16.076Z,142.93
2024-03-11T08:04:16.086Z,142.02
2024-03-11T08:05:16.156Z,143.07
2024-03-11T08:06:16.254Z,144.23
2024-03-11T08:07:16.329Z,145.86
2024-03-11T08:08:16.427Z,147.22
2024-03-11T08:09:16.528Z,147.95
2024-03-11T08:10:16.981Z,147.85
2024-03-11T08:11:16.761Z,149.65
2024-03-11T08:12:16.738Z,152.62
2024-03-11T08:13:16.761Z,153.89
2024-03-11T08:14:16.847Z,152.86
2024-03-11T08:15:16.946Z,153.50
2024-03-11T08:16:17.030Z,154.99
2024-03-11T08:17:16.958Z,152.46
2024-03-11T08:18:17.069Z,148.66
2024-03-11T08:19:17.088Z,145.85
2024-03-11T08:20:17.133Z,144.75
2024-03-11T08:21:17.219Z,143.06
2024-03-11T08:22:17.215Z,138.00
2024-03-11T08:23:17.267Z,134.48
2024-03-11T08:24:17.293Z,130.56
2024-03-11T08:25:17.325Z,125.47
2024-03-11T08:26:17.340Z,123.42
2024-03-11T08:27:17.374Z,117.86
2024-03-11T08:28:17.691Z,113.13
2024-03-11T08:29:17.500Z,111.05
2024-03-11T08:30:17.466Z,106.47
2024-03-11T08:31:17.490Z,105.47
2024-03-11T08:32:17.563Z,102.33
2024-03-11T08:33:17.624Z,98.29
2024-03-11T08:34:17.642Z,97.54
2024-03-11T08:35:17.668Z,94.41
2024-03-11T08:36:17.713Z,91.02
2024-03-11T08:37:17.754Z,86.19
2024-03-11T08:38:17.795Z,83.65
2024-03-11T08:39:17.942Z,82.66
2024-03-11T08:40:17.920Z,80.49
2024-03-11T08:41:17.903Z,78.16
2024-03-11T08:42:17.981Z,80.67
2024-03-11T08:43:18.004Z,80.51
2024-03-11T08:44:18.066Z,92.14
2024-03-11T08:45:18.060Z,94.97
2024-03-11T08:46:18.149Z,97.74
2024-03-11T08:47:18.237Z,98.00
2024-03-11T08:48:18.370Z,101.49
2024-03-11T08:49:18.401Z,108.10
2024-03-11T08:50:18.568Z,113.45
2024-03-11T08:51:18.533Z,114.76
2024-03-11T08:52:18.656Z,112.38
2024-03-11T08:53:18.742Z,111.79
2024-03-11T08:54:18.972Z,109.98
2024-03-11T08:55:18.933Z,111.00
2024-03-11T08:56:18.967Z,109.47
2024-03-11T08:57:19.095Z,110.97
2024-03-11T08:58:19.085Z,111.90
2024-03-11T08:59:19.153Z,111.84
2024-03-11T09:00:19.397Z,114.36
2024-03-11T09:01:19.337Z,115.26
2024-03-11T09:02:19.529Z,116.80
2024-03-11T09:03:20.617Z,117.11
2024-03-11T09:04:19.522Z,115.38
2024-03-11T09:05:20.533Z,116.21
2024-03-11T09:06:19.692Z,114.21
2024-03-11T09:07:19.699Z,111.84
2024-03-11T09:08:19.824Z,110.18
2024-03-11T09:09:20.111Z,108.21
2024-03-11T09:10:20.018Z,104.47
2024-03-11T09:11:19.939Z,101.37
2024-03-11T09:12:20.194Z,97.38
2024-03-11T09:13:20.198Z,91.37
2024-03-11T09:14:20.092Z,91.86
2024-03-11T09:15:20.897Z,87.78
2024-03-11T09:16:20.219Z,83.07
2024-03-11T09:17:20.319Z,82.44
2024-03-11T09:18:20.365Z,80.11
2024-03-11T09:19:20.319Z,76.34
2024-03-11T09:20:20.338Z,75.63
2024-03-11T09:21:20.374Z,73.55
2024-03-11T09:22:20.401Z,75.38
2024-03-11T09:23:20.437Z,82.49
2024-03-11T09:24:20.535Z,99.13
2024-03-11T09:25:20.513Z,131.23
2024-03-11T09:26:20.558Z,173.41
2024-03-11T09:27:20.618Z,189.87
2024-03-11T09:28:20.651Z,200.13
2024-03-11T09:29:20.677Z,205.57
2024-03-11T09:30:20.777Z,199.82
2024-03-11T09:31:20.800Z,196.10
2024-03-11T09:32:20.854Z,193.66
2024-03-11T09:33:20.941Z,198.04
2024-03-11T09:34:20.933Z,196.84
2024-03-11T09:35:20.930Z,197.17
2024-03-11T09:36:20.995Z,198.62
2024-03-11T09:37:21.002Z,195.13
2024-03-11T09:38:21.057Z,193.87
2024-03-11T09:39:21.111Z,187.58
2024-03-11T09:40:21.224Z,183.00
2024-03-11T09:41:21.183Z,163.91
2024-03-11T09:42:21.358Z,163.29
2024-03-11T09:43:21.280Z,163.00
2024-03-11T09:44:21.450Z,158.59
2024-03-11T09:45:21.413Z,156.85
2024-03-11T09:46:21.474Z,155.16
2024-03-11T09:47:21.537Z,154.88
2024-03-11T09:48:21.693Z,154.23
2024-03-11T09:49:21.616Z,152.30
2024-03-11T09:50:21.684Z,151.75
2024-03-11T09:51:21.756Z,149.62
2024-03-11T09:52:21.802Z,147.93
2024-03-11T09:53:21.870Z,144.05
2024-03-11T09:54:21.972Z,142.85
2024-03-11T09:55:21.975Z,140.16
2024-03-11T09:56:22.030Z,139.28
2024-03-11T09:57:22.131Z,135.50
2024-03-11T09:58:22.168Z,134.50
2024-03-11T09:59:22.202Z,131.79
2024-03-11T10:00:22.303Z,131.30
2024-03-11T10:01:22.394Z,129.08
2024-03-11T10:02:22.376Z,126.21
2024-03-11T10:03:23.675Z,126.53
2024-03-11T10:04:22.460Z,125.49
2024-03-11T10:05:22.498Z,125.35
2024-03-11T10:06:22.551Z,126.07
2024-03-11T10:07:22.554Z,126.05
2024-03-11T10:08:22.605Z,126.03
2024-03-11T10:09:22.656Z,127.62
2024-03-11T10:10:22.649Z,128.74
2024-03-11T10:11:23.347Z,129.89
2024-03-11T10:12:22.751Z,128.40
2024-03-11T10:13:22.986Z,128.28
2024-03-11T10:14:22.818Z,130.78
2024-03-11T10:15:22.913Z,130.48
2024-03-11T10:16:22.980Z,130.61
2024-03-11T10:17:22.968Z,132.10
2024-03-11T10:18:23.013Z,133.18
2024-03-11T10:19:23.623Z,132.35
2024-03-11T10:20:23.069Z,133.52
2024-03-11T10:21:23.189Z,133.79
2024-03-11T10:22:23.141Z,135.24
2024-03-11T10:23:23.175Z,135.59
2024-03-11T10:24:23.255Z,134.65
2024-03-11T10:25:23.301Z,135.64
2024-03-11T10:26:23.335Z,135.86
2024-03-11T10:27:23.414Z,137.77
2024-03-11T10:28:23.394Z,138.83
2024-03-11T10:29:23.486Z,139.61
2024-03-11T10:30:23.562Z,140.10
2024-03-11T10:31:23.539Z,140.69
2024-03-11T10:32:23.611Z,141.55
2024-03-11T10:33:23.694Z,142.79
2024-03-11T10:34:23.741Z,143.09
2024-03-11T10:35:23.819Z,143.81
2024-03-11T10:36:23.925Z,144.96
2024-03-11T10:37:23.960Z,144.36
2024-03-11T10:38:24.021Z,145.13
2024-03-11T10:39:24.162Z,145.63
2024-03-11T10:40:24.156Z,146.21
2024-03-11T10:41:24.223Z,148.44
2024-03-11T10:42:24.358Z,148.06
2024-03-11T10:43:24.334Z,149.43
2024-03-11T10:44:24.435Z,151.83
2024-03-11T10:45:24.537Z,152.19
2024-03-11T10:46:24.547Z,154.63
2024-03-11T10:47:24.696Z,156.14
2024-03-11T10:48:24.762Z,159.11
2024-03-11T10:49:24.744Z,160.87
2024-03-11T10:50:24.827Z,163.05
2024-03-11T10:51:24.946Z,164.41
2024-03-11T10:52:25.149Z,164.71
2024-03-11T10:53:25.044Z,167.39
2024-03-11T10:54:25.124Z,167.73
2024-03-11T10:55:25.251Z,168.20
2024-03-11T10:56:25.310Z,169.47
2024-03-11T10:57:25.313Z,170.22
2024-03-11T10:58:25.371Z,171.07
2024-03-11T10:59:25.454Z,172.30
2024-03-11T11:00:25.713Z,172.14
2024-03-11T11:01:25.662Z,172.11
2024-03-11T11:02:28.985Z,174.48
2024-03-11T11:03:25.700Z,180.12
2024-03-11T11:04:25.665Z,182.52
2024-03-11T11:05:25.750Z,185.00
2024-03-11T11:06:25.698Z,187.55
2024-03-11T11:07:25.670Z,189.41
2024-03-11T11:08:25.665Z,191.45
2024-03-11T11:09:25.721Z,192.48
2024-03-11T11:10:25.680Z,193.86
2024-03-11T11:11:25.730Z,195.83
2024-03-11T11:12:25.689Z,197.55
2024-03-11T11:13:25.675Z,197.79
2024-03-11T11:14:28.810Z,200.00
2024-03-11T11:15:25.791Z,200.13
2024-03-11T11:16:25.703Z,200.43
2024-03-11T11:17:25.684Z,201.58
2024-03-11T11:18:25.924Z,203.33
2024-03-11T11:19:25.725Z,206.33
2024-03-11T11:20:25.686Z,199.49
2024-03-11T11:21:25.714Z,199.90
2024-03-11T11:22:25.706Z,199.53
2024-03-11T11:23:25.708Z,198.50
2024-03-11T11:24:29.212Z,198.66
2024-03-11T11:25:25.712Z,198.76
2024-03-11T11:26:25.733Z,199.17
2024-03-11T11:27:25.817Z,201.09
2024-03-11T11:28:25.762Z,204.64
2024-03-11T11:29:25.781Z,210.32
2024-03-11T11:30:25.761Z,200.00
2024-03-11T11:31:25.750Z,200.00
2024-03-11T11:32:25.751Z,199.57
2024-03-11T11:33:25.757Z,200.00
2024-03-11T11:34:25.712Z,200.00
2024-03-11T11:35:25.767Z,199.52
2024-03-11T11:36:27.360Z,198.30
2024-03-11T11:37:25.906Z,199.40
2024-03-11T11:38:25.953Z,199.14
2024-03-11T11:39:26.066Z,200.00
2024-03-11T11:40:26.026Z,198.59
2024-03-11T11:41:26.066Z,198.48
2024-03-11T11:42:26.199Z,198.55
2024-03-11T11:43:26.132Z,187.67
2024-03-11T11:44:26.163Z,179.84
2024-03-11T11:45:26.237Z,166.55
2024-03-11T11:46:26.204Z,159.92
2024-03-11T11:47:26.377Z,158.59
2024-03-11T11:48:26.292Z,158.16
2024-03-11T11:49:26.328Z,154.95
2024-03-11T11:50:26.353Z,153.69
2024-03-11T11:51:26.403Z,149.99
2024-03-11T11:52:28.691Z,142.55
2024-03-11T11:53:26.445Z,141.16
2024-03-11T11:54:34.871Z,137.80
2024-03-11T11:55:27.470Z,138.23
2024-03-11T11:56:26.411Z,140.97
2024-03-11T11:57:26.817Z,146.63
2024-03-11T11:58:26.425Z,153.67
2024-03-11T11:59:26.438Z,166.52
2024-03-11T12:00:34.359Z,169.74
2024-03-11T12:01:27.548Z,169.34
2024-03-11T12:02:26.574Z,169.41
2024-03-11T12:03:26.506Z,170.01
2024-03-11T12:04:26.448Z,170.84
2024-03-11T12:05:26.429Z,172.27
2024-03-11T12:06:26.475Z,174.38
2024-03-11T12:07:26.658Z,176.13
2024-03-11T12:08:26.460Z,178.14
2024-03-11T12:09:26.525Z,178.93
2024-03-11T12:10:26.477Z,180.62
2024-03-11T12:11:26.584Z,182.20
2024-03-11T12:12:26.534Z,184.52
2024-03-11T12:13:26.516Z,185.29
2024-03-11T12:14:26.610Z,187.88
2024-03-11T12:15:26.888Z,188.66
2024-03-11T12:16:26.736Z,190.82
2024-03-11T12:17:26.821Z,191.98
2024-03-11T12:18:26.970Z,193.24
2024-03-11T12:19:26.985Z,195.11
2024-03-11T12:20:27.417Z,198.28
2024-03-11T12:21:27.198Z,200.00
2024-03-11T12:22:27.240Z,199.64
2024-03-11T12:23:27.335Z,198.75
2024-03-11T12:24:27.547Z,199.39
2024-03-11T12:25:27.503Z,199.21
2024-03-11T12:26:31.372Z,200.00
2024-03-11T12:27:28.604Z,200.10
2024-03-11T12:28:27.585Z,200.33
2024-03-11T12:29:27.613Z,201.44
2024-03-11T12:30:27.623Z,203.01
2024-03-11T12:31:27.617Z,205.56
2024-03-11T12:32:27.618Z,199.79
2024-03-11T12:33:27.721Z,199.63
2024-03-11T12:34:27.613Z,199.28
2024-03-11T12:35:27.615Z,198.96
2024-03-11T12:36:28.246Z,199.47
2024-03-11T12:37:27.666Z,199.23
2024-03-11T12:38:27.701Z,200.00
2024-03-11T12:39:28.809Z,200.00
2024-03-11T12:40:27.803Z,199.46
2024-03-11T12:41:27.855Z,199.61
2024-03-11T12:42:27.926Z,198.32
2024-03-11T12:43:27.957Z,197.62
2024-03-11T12:44:28.033Z,196.87